sensor_id;sensor_type;location;lat;lon;timestamp;P1;durP1;ratioP1;P2;durP2;ratioP2
12812;SDS011;6471;50.932;6.934;2023-04-24T00:00:30;1.17;;;0.90;;
12812;SDS011;6471;50.932;6.934;2023-04-24T00:02:56;1.63;;;0.97;;
12812;SDS011;6471;50.932;6.934;2023-04-24T00:05:23;1.10;;;0.93;;
12812;SDS011;6471;50.932;6.934;2023-04-24T00:07:49;1.10;;;1.00;;
12812;SDS011;6471;50.932;6.934;2023-04-24T00:10:19;1.20;;;0.90;;
12812;SDS011;6471;50.932;6.934;2023-04-24T00:12:45;0.80;;;0.80;;
12812;SDS011;6471;50.932;6.934;2023-04-24T00:15:11;1.40;;;1.10;;
12812;SDS011;6471;50.932;6.934;2023-04-24T00:17:37;1.10;;;1.00;;
12812;SDS011;6471;50.932;6.934;2023-04-24T00:20:04;1.00;;;0.90;;
12812;SDS011;6471;50.932;6.934;2023-04-24T00:22:31;1.13;;;1.03;;
12812;SDS011;6471;50.932;6.934;2023-04-24T00:24:57;1.10;;;1.00;;
12812;SDS011;6471;50.932;6.934;2023-04-24T00:27:24;0.90;;;0.90;;
12812;SDS011;6471;50.932;6.934;2023-04-24T00:29:50;1.23;;;1.00;;
12812;SDS011;6471;50.932;6.934;2023-04-24T00:32:16;1.10;;;0.93;;
12812;SDS011;6471;50.932;6.934;2023-04-24T00:34:43;1.10;;;1.00;;
12812;SDS011;6471;50.932;6.934;2023-04-24T00:37:09;1.10;;;0.87;;
12812;SDS011;6471;50.932;6.934;2023-04-24T00:39:36;1.10;;;1.00;;
12812;SDS011;6471;50.932;6.934;2023-04-24T00:42:02;1.83;;;0.90;;
12812;SDS011;6471;50.932;6.934;2023-04-24T00:44:31;1.43;;;1.07;;
12812;SDS011;6471;50.932;6.934;2023-04-24T00:46:57;1.47;;;1.00;;
12812;SDS011;6471;50.932;6.934;2023-04-24T00:49:25;1.83;;;0.90;;
12812;SDS011;6471;50.932;6.934;2023-04-24T00:51:51;1.17;;;1.07;;
12812;SDS011;6471;50.932;6.934;2023-04-24T00:54:19;1.10;;;1.00;;
12812;SDS011;6471;50.932;6.934;2023-04-24T00:56:45;1.30;;;1.03;;
12812;SDS011;6471;50.932;6.934;2023-04-24T00:59:12;1.87;;;1.20;;
12812;SDS011;6471;50.932;6.934;2023-04-24T01:01:39;1.30;;;1.20;;
12812;SDS011;6471;50.932;6.934;2023-04-24T01:04:09;1.37;;;1.20;;
12812;SDS011;6471;50.932;6.934;2023-04-24T01:06:35;2.83;;;1.30;;
12812;SDS011;6471;50.932;6.934;2023-04-24T01:09:04;1.50;;;1.20;;
12812;SDS011;6471;50.932;6.934;2023-04-24T01:11:30;1.27;;;1.10;;
12812;SDS011;6471;50.932;6.934;2023-04-24T01:13:57;1.10;;;1.00;;
12812;SDS011;6471;50.932;6.934;2023-04-24T01:16:23;1.10;;;1.00;;
12812;SDS011;6471;50.932;6.934;2023-04-24T01:18:49;0.90;;;0.87;;
12812;SDS011;6471;50.932;6.934;2023-04-24T01:21:16;1.30;;;1.10;;
12812;SDS011;6471;50.932;6.934;2023-04-24T01:23:44;1.20;;;1.10;;
12812;SDS011;6471;50.932;6.934;2023-04-24T01:26:10;1.20;;;1.10;;
12812;SDS011;6471;50.932;6.934;2023-04-24T01:28:40;1.20;;;1.10;;
12812;SDS011;6471;50.932;6.934;2023-04-24T01:31:06;1.43;;;1.30;;
12812;SDS011;6471;50.932;6.934;2023-04-24T01:33:32;1.70;;;1.30;;
12812;SDS011;6471;50.932;6.934;2023-04-24T01:35:58;1.50;;;1.40;;
12812;SDS011;6471;50.932;6.934;2023-04-24T01:38:24;2.63;;;2.10;;
12812;SDS011;6471;50.932;6.934;2023-04-24T01:40:50;5.03;;;2.43;;
12812;SDS011;6471;50.932;6.934;2023-04-24T01:43:17;3.00;;;2.40;;
12812;SDS011;6471;50.932;6.934;2023-04-24T01:45:43;3.33;;;2.20;;
12812;SDS011;6471;50.932;6.934;2023-04-24T01:48:10;3.03;;;2.60;;
12812;SDS011;6471;50.932;6.934;2023-04-24T01:50:37;3.27;;;2.67;;
12812;SDS011;6471;50.932;6.934;2023-04-24T01:53:08;4.90;;;3.00;;
12812;SDS011;6471;50.932;6.934;2023-04-24T01:55:34;3.10;;;2.70;;
12812;SDS011;6471;50.932;6.934;2023-04-24T01:58:01;3.93;;;3.10;;
12812;SDS011;6471;50.932;6.934;2023-04-24T02:00:30;3.20;;;2.80;;
12812;SDS011;6471;50.932;6.934;2023-04-24T02:02:56;3.20;;;2.70;;
12812;SDS011;6471;50.932;6.934;2023-04-24T02:05:22;4.80;;;3.00;;
12812;SDS011;6471;50.932;6.934;2023-04-24T02:07:49;5.17;;;2.90;;
12812;SDS011;6471;50.932;6.934;2023-04-24T02:10:15;5.93;;;3.40;;
12812;SDS011;6471;50.932;6.934;2023-04-24T02:12:41;5.00;;;3.63;;
12812;SDS011;6471;50.932;6.934;2023-04-24T02:15:07;5.03;;;3.30;;
12812;SDS011;6471;50.932;6.934;2023-04-24T02:17:33;4.43;;;3.23;;
12812;SDS011;6471;50.932;6.934;2023-04-24T02:19:59;6.00;;;3.70;;
12812;SDS011;6471;50.932;6.934;2023-04-24T02:22:26;4.77;;;3.47;;
12812;SDS011;6471;50.932;6.934;2023-04-24T02:24:55;5.73;;;3.40;;
12812;SDS011;6471;50.932;6.934;2023-04-24T02:27:21;4.27;;;3.30;;
12812;SDS011;6471;50.932;6.934;2023-04-24T02:29:47;3.50;;;2.97;;
12812;SDS011;6471;50.932;6.934;2023-04-24T02:32:13;3.40;;;2.87;;
12812;SDS011;6471;50.932;6.934;2023-04-24T02:34:40;3.90;;;3.30;;
12812;SDS011;6471;50.932;6.934;2023-04-24T02:37:06;4.57;;;3.50;;
12812;SDS011;6471;50.932;6.934;2023-04-24T02:39:32;3.80;;;3.13;;
12812;SDS011;6471;50.932;6.934;2023-04-24T02:41:58;3.47;;;3.00;;
12812;SDS011;6471;50.932;6.934;2023-04-24T02:44:25;3.93;;;2.93;;
12812;SDS011;6471;50.932;6.934;2023-04-24T02:46:51;5.70;;;2.83;;
12812;SDS011;6471;50.932;6.934;2023-04-24T02:49:17;3.10;;;2.70;;
12812;SDS011;6471;50.932;6.934;2023-04-24T02:51:43;3.40;;;3.10;;
12812;SDS011;6471;50.932;6.934;2023-04-24T02:54:09;4.97;;;3.43;;
12812;SDS011;6471;50.932;6.934;2023-04-24T02:56:36;5.10;;;3.67;;
12812;SDS011;6471;50.932;6.934;2023-04-24T02:59:02;5.00;;;3.33;;
12812;SDS011;6471;50.932;6.934;2023-04-24T03:01:28;3.87;;;3.13;;
12812;SDS011;6471;50.932;6.934;2023-04-24T03:03:54;4.57;;;3.30;;
12812;SDS011;6471;50.932;6.934;2023-04-24T03:06:20;3.97;;;3.20;;
12812;SDS011;6471;50.932;6.934;2023-04-24T03:08:47;4.07;;;3.40;;
12812;SDS011;6471;50.932;6.934;2023-04-24T03:11:13;6.43;;;4.13;;
12812;SDS011;6471;50.932;6.934;2023-04-24T03:13:39;5.07;;;3.67;;
12812;SDS011;6471;50.932;6.934;2023-04-24T03:16:05;4.47;;;3.43;;
12812;SDS011;6471;50.932;6.934;2023-04-24T03:18:34;7.53;;;4.20;;
12812;SDS011;6471;50.932;6.934;2023-04-24T03:21:00;5.13;;;3.80;;
12812;SDS011;6471;50.932;6.934;2023-04-24T03:23:26;5.87;;;4.00;;
12812;SDS011;6471;50.932;6.934;2023-04-24T03:25:52;5.10;;;3.70;;
12812;SDS011;6471;50.932;6.934;2023-04-24T03:28:19;4.60;;;3.70;;
12812;SDS011;6471;50.932;6.934;2023-04-24T03:30:45;6.40;;;4.03;;
12812;SDS011;6471;50.932;6.934;2023-04-24T03:33:11;5.00;;;3.70;;
12812;SDS011;6471;50.932;6.934;2023-04-24T03:35:37;3.50;;;3.20;;
12812;SDS011;6471;50.932;6.934;2023-04-24T03:38:04;6.43;;;4.20;;
12812;SDS011;6471;50.932;6.934;2023-04-24T03:40:30;6.43;;;4.10;;
12812;SDS011;6471;50.932;6.934;2023-04-24T03:42:58;6.83;;;3.87;;
12812;SDS011;6471;50.932;6.934;2023-04-24T03:45:27;5.03;;;3.93;;
12812;SDS011;6471;50.932;6.934;2023-04-24T03:47:53;4.53;;;3.43;;
12812;SDS011;6471;50.932;6.934;2023-04-24T03:50:22;4.47;;;3.23;;
12812;SDS011;6471;50.932;6.934;2023-04-24T03:52:48;4.40;;;3.87;;
12812;SDS011;6471;50.932;6.934;2023-04-24T03:55:14;3.87;;;3.30;;
12812;SDS011;6471;50.932;6.934;2023-04-24T03:57:40;3.80;;;3.20;;
12812;SDS011;6471;50.932;6.934;2023-04-24T04:00:07;4.07;;;3.40;;
12812;SDS011;6471;50.932;6.934;2023-04-24T04:02:33;5.03;;;3.60;;
12812;SDS011;6471;50.932;6.934;2023-04-24T04:05:00;5.83;;;4.00;;
12812;SDS011;6471;50.932;6.934;2023-04-24T04:07:27;4.43;;;3.23;;
12812;SDS011;6471;50.932;6.934;2023-04-24T04:09:54;5.07;;;3.67;;
12812;SDS011;6471;50.932;6.934;2023-04-24T04:12:20;5.07;;;3.60;;
12812;SDS011;6471;50.932;6.934;2023-04-24T04:14:46;4.33;;;3.53;;
12812;SDS011;6471;50.932;6.934;2023-04-24T04:17:12;5.87;;;3.70;;
12812;SDS011;6471;50.932;6.934;2023-04-24T04:19:38;4.60;;;3.27;;
12812;SDS011;6471;50.932;6.934;2023-04-24T04:22:05;4.97;;;3.80;;
12812;SDS011;6471;50.932;6.934;2023-04-24T04:24:33;5.37;;;3.80;;
12812;SDS011;6471;50.932;6.934;2023-04-24T04:27:02;5.50;;;3.40;;
12812;SDS011;6471;50.932;6.934;2023-04-24T04:29:29;4.43;;;3.30;;
12812;SDS011;6471;50.932;6.934;2023-04-24T04:31:56;4.03;;;3.23;;
12812;SDS011;6471;50.932;6.934;2023-04-24T04:34:30;5.27;;;3.50;;
12812;SDS011;6471;50.932;6.934;2023-04-24T04:36:56;5.03;;;3.53;;
12812;SDS011;6471;50.932;6.934;2023-04-24T04:39:29;4.73;;;3.90;;
12812;SDS011;6471;50.932;6.934;2023-04-24T04:47:33;5.30;;;3.43;;
12812;SDS011;6471;50.932;6.934;2023-04-24T04:50:00;3.83;;;2.90;;
12812;SDS011;6471;50.932;6.934;2023-04-24T04:52:26;5.23;;;3.80;;
12812;SDS011;6471;50.932;6.934;2023-04-24T04:54:52;5.07;;;3.80;;
12812;SDS011;6471;50.932;6.934;2023-04-24T04:57:18;3.43;;;3.13;;
12812;SDS011;6471;50.932;6.934;2023-04-24T04:59:45;3.50;;;2.90;;
12812;SDS011;6471;50.932;6.934;2023-04-24T05:15:13;4.17;;;3.37;;
12812;SDS011;6471;50.932;6.934;2023-04-24T05:17:42;3.90;;;3.00;;
12812;SDS011;6471;50.932;6.934;2023-04-24T05:20:15;4.90;;;3.80;;
12812;SDS011;6471;50.932;6.934;2023-04-24T05:22:43;5.07;;;3.50;;
12812;SDS011;6471;50.932;6.934;2023-04-24T05:25:10;4.07;;;3.13;;
12812;SDS011;6471;50.932;6.934;2023-04-24T05:45:57;2.90;;;2.60;;
12812;SDS011;6471;50.932;6.934;2023-04-24T05:51:28;3.93;;;2.87;;
12812;SDS011;6471;50.932;6.934;2023-04-24T06:00:16;4.63;;;3.33;;
12812;SDS011;6471;50.932;6.934;2023-04-24T06:02:51;3.63;;;3.17;;
12812;SDS011;6471;50.932;6.934;2023-04-24T06:05:22;4.50;;;3.20;;
12812;SDS011;6471;50.932;6.934;2023-04-24T06:13:00;5.47;;;3.60;;
12812;SDS011;6471;50.932;6.934;2023-04-24T06:15:53;4.77;;;3.40;;
12812;SDS011;6471;50.932;6.934;2023-04-24T06:22:12;5.33;;;3.33;;
12812;SDS011;6471;50.932;6.934;2023-04-24T06:24:59;6.07;;;4.20;;
12812;SDS011;6471;50.932;6.934;2023-04-24T06:31:23;4.13;;;3.17;;
12812;SDS011;6471;50.932;6.934;2023-04-24T06:34:29;2.77;;;2.53;;
12812;SDS011;6471;50.932;6.934;2023-04-24T06:37:24;3.60;;;2.50;;
12812;SDS011;6471;50.932;6.934;2023-04-24T06:39:50;3.73;;;2.50;;
12812;SDS011;6471;50.932;6.934;2023-04-24T06:42:17;4.87;;;2.63;;
12812;SDS011;6471;50.932;6.934;2023-04-24T06:44:45;4.07;;;2.10;;
12812;SDS011;6471;50.932;6.934;2023-04-24T06:47:11;3.70;;;2.13;;
12812;SDS011;6471;50.932;6.934;2023-04-24T06:49:44;2.83;;;2.27;;
12812;SDS011;6471;50.932;6.934;2023-04-24T06:52:10;4.23;;;1.97;;
12812;SDS011;6471;50.932;6.934;2023-04-24T06:54:36;2.00;;;1.80;;
12812;SDS011;6471;50.932;6.934;2023-04-24T06:57:02;2.33;;;1.87;;
12812;SDS011;6471;50.932;6.934;2023-04-24T06:59:29;3.27;;;1.80;;
12812;SDS011;6471;50.932;6.934;2023-04-24T07:01:56;3.33;;;1.90;;
12812;SDS011;6471;50.932;6.934;2023-04-24T07:04:22;1.87;;;1.67;;
12812;SDS011;6471;50.932;6.934;2023-04-24T07:06:49;1.67;;;1.50;;
12812;SDS011;6471;50.932;6.934;2023-04-24T07:11:59;1.70;;;1.60;;
12812;SDS011;6471;50.932;6.934;2023-04-24T07:14:33;2.20;;;1.60;;
12812;SDS011;6471;50.932;6.934;2023-04-24T07:17:02;2.30;;;1.90;;
12812;SDS011;6471;50.932;6.934;2023-04-24T07:19:42;2.20;;;1.93;;
12812;SDS011;6471;50.932;6.934;2023-04-24T07:22:08;2.20;;;1.90;;
12812;SDS011;6471;50.932;6.934;2023-04-24T07:24:36;2.10;;;1.80;;
12812;SDS011;6471;50.932;6.934;2023-04-24T07:27:05;1.87;;;1.63;;
12812;SDS011;6471;50.932;6.934;2023-04-24T07:29:32;1.70;;;1.57;;
12812;SDS011;6471;50.932;6.934;2023-04-24T07:31:58;2.30;;;1.97;;
12812;SDS011;6471;50.932;6.934;2023-04-24T07:46:59;1.60;;;1.50;;
12812;SDS011;6471;50.932;6.934;2023-04-24T07:49:28;1.40;;;1.30;;
12812;SDS011;6471;50.932;6.934;2023-04-24T07:51:55;2.40;;;1.50;;
12812;SDS011;6471;50.932;6.934;2023-04-24T07:54:21;1.47;;;1.23;;
12812;SDS011;6471;50.932;6.934;2023-04-24T08:00:08;2.17;;;1.43;;
12812;SDS011;6471;50.932;6.934;2023-04-24T08:02:44;2.07;;;1.53;;
12812;SDS011;6471;50.932;6.934;2023-04-24T08:05:13;3.43;;;1.30;;
12812;SDS011;6471;50.932;6.934;2023-04-24T08:07:42;1.80;;;1.50;;
12812;SDS011;6471;50.932;6.934;2023-04-24T08:10:34;2.00;;;1.40;;
12812;SDS011;6471;50.932;6.934;2023-04-24T08:28:58;2.93;;;1.40;;
12812;SDS011;6471;50.932;6.934;2023-04-24T09:05:26;2.97;;;1.93;;
12812;SDS011;6471;50.932;6.934;2023-04-24T09:48:16;7.30;;;4.23;;
12812;SDS011;6471;50.932;6.934;2023-04-24T10:13:38;5.93;;;4.50;;
12812;SDS011;6471;50.932;6.934;2023-04-24T10:25:42;7.33;;;3.50;;
12812;SDS011;6471;50.932;6.934;2023-04-24T10:59:28;5.20;;;3.07;;
12812;SDS011;6471;50.932;6.934;2023-04-24T11:53:09;4.90;;;3.20;;
12812;SDS011;6471;50.932;6.934;2023-04-24T11:55:48;7.10;;;2.80;;
12812;SDS011;6471;50.932;6.934;2023-04-24T12:04:25;6.63;;;2.60;;
12812;SDS011;6471;50.932;6.934;2023-04-24T12:07:04;4.87;;;2.63;;
12812;SDS011;6471;50.932;6.934;2023-04-24T12:12:15;4.53;;;2.90;;
12812;SDS011;6471;50.932;6.934;2023-04-24T12:14:43;5.70;;;3.00;;
12812;SDS011;6471;50.932;6.934;2023-04-24T12:17:09;7.23;;;3.17;;
12812;SDS011;6471;50.932;6.934;2023-04-24T12:19:35;7.27;;;3.37;;
12812;SDS011;6471;50.932;6.934;2023-04-24T12:22:02;6.53;;;3.30;;
12812;SDS011;6471;50.932;6.934;2023-04-24T12:24:31;4.73;;;3.10;;
12812;SDS011;6471;50.932;6.934;2023-04-24T12:26:58;8.00;;;3.07;;
12812;SDS011;6471;50.932;6.934;2023-04-24T12:29:26;8.53;;;3.50;;
12812;SDS011;6471;50.932;6.934;2023-04-24T12:31:52;6.53;;;3.70;;
12812;SDS011;6471;50.932;6.934;2023-04-24T12:34:19;6.60;;;3.40;;
12812;SDS011;6471;50.932;6.934;2023-04-24T12:36:45;8.60;;;3.83;;
12812;SDS011;6471;50.932;6.934;2023-04-24T12:39:15;6.53;;;3.50;;
12812;SDS011;6471;50.932;6.934;2023-04-24T12:41:55;7.10;;;3.10;;
12812;SDS011;6471;50.932;6.934;2023-04-24T12:44:34;6.10;;;3.03;;
12812;SDS011;6471;50.932;6.934;2023-04-24T12:47:02;5.57;;;3.30;;
12812;SDS011;6471;50.932;6.934;2023-04-24T12:49:31;7.27;;;3.47;;
12812;SDS011;6471;50.932;6.934;2023-04-24T12:51:57;6.07;;;3.10;;
12812;SDS011;6471;50.932;6.934;2023-04-24T12:54:24;6.03;;;3.23;;
12812;SDS011;6471;50.932;6.934;2023-04-24T12:56:50;6.23;;;3.17;;
12812;SDS011;6471;50.932;6.934;2023-04-24T13:01:53;8.20;;;3.40;;
12812;SDS011;6471;50.932;6.934;2023-04-24T13:04:19;8.90;;;3.60;;
12812;SDS011;6471;50.932;6.934;2023-04-24T13:06:48;7.50;;;3.30;;
12812;SDS011;6471;50.932;6.934;2023-04-24T13:09:14;6.27;;;3.40;;
12812;SDS011;6471;50.932;6.934;2023-04-24T13:11:40;7.73;;;3.20;;
12812;SDS011;6471;50.932;6.934;2023-04-24T13:14:06;6.37;;;3.47;;
12812;SDS011;6471;50.932;6.934;2023-04-24T13:16:35;5.87;;;3.40;;
12812;SDS011;6471;50.932;6.934;2023-04-24T13:19:01;6.73;;;3.30;;
12812;SDS011;6471;50.932;6.934;2023-04-24T13:21:27;7.00;;;3.37;;
12812;SDS011;6471;50.932;6.934;2023-04-24T13:23:55;9.83;;;4.20;;
12812;SDS011;6471;50.932;6.934;2023-04-24T13:26:21;9.30;;;3.93;;
12812;SDS011;6471;50.932;6.934;2023-04-24T13:28:48;6.80;;;4.07;;
12812;SDS011;6471;50.932;6.934;2023-04-24T13:31:14;8.13;;;3.90;;
12812;SDS011;6471;50.932;6.934;2023-04-24T13:33:40;7.60;;;3.60;;
12812;SDS011;6471;50.932;6.934;2023-04-24T13:36:06;7.77;;;3.57;;
12812;SDS011;6471;50.932;6.934;2023-04-24T13:38:32;7.53;;;3.80;;
12812;SDS011;6471;50.932;6.934;2023-04-24T13:40:58;6.77;;;3.67;;
12812;SDS011;6471;50.932;6.934;2023-04-24T13:46:04;5.77;;;3.50;;
12812;SDS011;6471;50.932;6.934;2023-04-24T13:48:30;8.53;;;3.87;;
12812;SDS011;6471;50.932;6.934;2023-04-24T13:50:56;9.00;;;4.20;;
12812;SDS011;6471;50.932;6.934;2023-04-24T13:53:22;7.77;;;3.30;;
12812;SDS011;6471;50.932;6.934;2023-04-24T13:55:48;9.47;;;3.90;;
12812;SDS011;6471;50.932;6.934;2023-04-24T13:58:14;6.27;;;3.27;;
12812;SDS011;6471;50.932;6.934;2023-04-24T14:00:41;6.57;;;3.10;;
12812;SDS011;6471;50.932;6.934;2023-04-24T14:03:07;5.77;;;3.03;;
12812;SDS011;6471;50.932;6.934;2023-04-24T14:05:34;6.30;;;3.20;;
12812;SDS011;6471;50.932;6.934;2023-04-24T14:08:06;7.27;;;3.70;;
12812;SDS011;6471;50.932;6.934;2023-04-24T14:10:37;9.07;;;3.90;;
12812;SDS011;6471;50.932;6.934;2023-04-24T14:13:03;7.27;;;3.57;;
12812;SDS011;6471;50.932;6.934;2023-04-24T14:15:30;6.07;;;3.63;;
12812;SDS011;6471;50.932;6.934;2023-04-24T14:18:03;4.87;;;3.70;;
12812;SDS011;6471;50.932;6.934;2023-04-24T14:20:29;7.50;;;3.60;;
12812;SDS011;6471;50.932;6.934;2023-04-24T14:22:56;7.70;;;3.40;;
12812;SDS011;6471;50.932;6.934;2023-04-24T14:25:25;7.13;;;3.70;;
12812;SDS011;6471;50.932;6.934;2023-04-24T14:27:51;4.97;;;3.00;;
12812;SDS011;6471;50.932;6.934;2023-04-24T14:30:18;10.40;;;3.60;;
12812;SDS011;6471;50.932;6.934;2023-04-24T14:32:59;4.83;;;3.30;;
12812;SDS011;6471;50.932;6.934;2023-04-24T14:35:29;4.23;;;3.00;;
12812;SDS011;6471;50.932;6.934;2023-04-24T14:38:08;8.70;;;3.30;;
12812;SDS011;6471;50.932;6.934;2023-04-24T14:40:37;5.60;;;3.43;;
12812;SDS011;6471;50.932;6.934;2023-04-24T14:43:04;4.87;;;3.43;;
12812;SDS011;6471;50.932;6.934;2023-04-24T14:45:30;4.30;;;3.10;;
12812;SDS011;6471;50.932;6.934;2023-04-24T14:47:57;6.23;;;3.50;;
12812;SDS011;6471;50.932;6.934;2023-04-24T14:50:32;7.17;;;3.57;;
12812;SDS011;6471;50.932;6.934;2023-04-24T14:55:37;6.07;;;3.33;;
12812;SDS011;6471;50.932;6.934;2023-04-24T14:58:07;5.13;;;3.23;;
12812;SDS011;6471;50.932;6.934;2023-04-24T15:00:33;6.33;;;3.90;;
12812;SDS011;6471;50.932;6.934;2023-04-24T15:03:00;4.77;;;3.27;;
12812;SDS011;6471;50.932;6.934;2023-04-24T15:05:26;4.53;;;3.30;;
12812;SDS011;6471;50.932;6.934;2023-04-24T15:07:52;7.97;;;3.70;;
12812;SDS011;6471;50.932;6.934;2023-04-24T15:10:18;4.50;;;2.90;;
12812;SDS011;6471;50.932;6.934;2023-04-24T15:12:47;7.47;;;3.40;;
12812;SDS011;6471;50.932;6.934;2023-04-24T15:15:13;5.27;;;3.40;;
12812;SDS011;6471;50.932;6.934;2023-04-24T15:17:40;7.13;;;3.23;;
12812;SDS011;6471;50.932;6.934;2023-04-24T15:20:06;6.43;;;3.30;;
12812;SDS011;6471;50.932;6.934;2023-04-24T15:22:32;6.80;;;3.03;;
12812;SDS011;6471;50.932;6.934;2023-04-24T15:24:59;3.93;;;2.60;;
12812;SDS011;6471;50.932;6.934;2023-04-24T15:27:26;4.20;;;3.10;;
12812;SDS011;6471;50.932;6.934;2023-04-24T15:29:52;5.97;;;3.40;;
12812;SDS011;6471;50.932;6.934;2023-04-24T15:32:19;4.43;;;3.07;;
12812;SDS011;6471;50.932;6.934;2023-04-24T15:34:45;5.63;;;3.13;;
12812;SDS011;6471;50.932;6.934;2023-04-24T15:37:11;6.57;;;3.20;;
12812;SDS011;6471;50.932;6.934;2023-04-24T15:39:37;4.87;;;3.20;;
12812;SDS011;6471;50.932;6.934;2023-04-24T15:42:03;4.50;;;3.30;;
12812;SDS011;6471;50.932;6.934;2023-04-24T15:44:29;4.77;;;3.00;;
12812;SDS011;6471;50.932;6.934;2023-04-24T15:46:55;4.50;;;3.40;;
12812;SDS011;6471;50.932;6.934;2023-04-24T15:49:22;6.07;;;3.20;;
12812;SDS011;6471;50.932;6.934;2023-04-24T15:51:48;5.23;;;3.53;;
12812;SDS011;6471;50.932;6.934;2023-04-24T15:54:14;7.27;;;3.27;;
12812;SDS011;6471;50.932;6.934;2023-04-24T15:56:40;4.90;;;3.20;;
12812;SDS011;6471;50.932;6.934;2023-04-24T15:59:06;5.23;;;3.40;;
12812;SDS011;6471;50.932;6.934;2023-04-24T16:01:32;5.43;;;3.03;;
12812;SDS011;6471;50.932;6.934;2023-04-24T16:03:58;4.93;;;3.20;;
12812;SDS011;6471;50.932;6.934;2023-04-24T16:06:24;6.90;;;3.90;;
12812;SDS011;6471;50.932;6.934;2023-04-24T16:08:51;5.13;;;2.90;;
12812;SDS011;6471;50.932;6.934;2023-04-24T16:11:17;4.53;;;3.20;;
12812;SDS011;6471;50.932;6.934;2023-04-24T16:13:44;6.70;;;3.20;;
12812;SDS011;6471;50.932;6.934;2023-04-24T16:16:10;5.00;;;2.83;;
12812;SDS011;6471;50.932;6.934;2023-04-24T16:18:36;4.47;;;3.00;;
12812;SDS011;6471;50.932;6.934;2023-04-24T16:21:02;4.83;;;3.10;;
12812;SDS011;6471;50.932;6.934;2023-04-24T16:23:28;3.70;;;2.90;;
12812;SDS011;6471;50.932;6.934;2023-04-24T16:25:54;3.63;;;2.53;;
12812;SDS011;6471;50.932;6.934;2023-04-24T16:28:21;7.07;;;2.80;;
12812;SDS011;6471;50.932;6.934;2023-04-24T16:30:47;3.93;;;2.83;;
12812;SDS011;6471;50.932;6.934;2023-04-24T16:33:13;4.50;;;2.70;;
12812;SDS011;6471;50.932;6.934;2023-04-24T16:35:40;3.60;;;2.73;;
12812;SDS011;6471;50.932;6.934;2023-04-24T16:38:07;4.57;;;2.30;;
12812;SDS011;6471;50.932;6.934;2023-04-24T16:40:33;4.53;;;2.93;;
12812;SDS011;6471;50.932;6.934;2023-04-24T16:42:59;4.63;;;2.63;;
12812;SDS011;6471;50.932;6.934;2023-04-24T16:45:25;4.10;;;2.80;;
12812;SDS011;6471;50.932;6.934;2023-04-24T16:47:51;3.37;;;2.30;;
12812;SDS011;6471;50.932;6.934;2023-04-24T16:50:17;4.57;;;2.40;;
12812;SDS011;6471;50.932;6.934;2023-04-24T16:52:44;4.83;;;2.77;;
12812;SDS011;6471;50.932;6.934;2023-04-24T16:55:10;5.70;;;2.80;;
12812;SDS011;6471;50.932;6.934;2023-04-24T16:57:36;5.57;;;2.70;;
12812;SDS011;6471;50.932;6.934;2023-04-24T17:00:02;3.30;;;2.27;;
12812;SDS011;6471;50.932;6.934;2023-04-24T17:02:28;3.37;;;2.30;;
12812;SDS011;6471;50.932;6.934;2023-04-24T17:04:55;4.93;;;2.40;;
12812;SDS011;6471;50.932;6.934;2023-04-24T17:07:21;3.20;;;2.13;;
12812;SDS011;6471;50.932;6.934;2023-04-24T17:09:48;4.87;;;2.20;;
12812;SDS011;6471;50.932;6.934;2023-04-24T17:12:14;2.67;;;2.13;;
12812;SDS011;6471;50.932;6.934;2023-04-24T17:14:40;4.80;;;2.70;;
12812;SDS011;6471;50.932;6.934;2023-04-24T17:17:06;2.83;;;2.40;;
12812;SDS011;6471;50.932;6.934;2023-04-24T17:19:32;3.90;;;2.37;;
12812;SDS011;6471;50.932;6.934;2023-04-24T17:21:58;3.97;;;2.30;;
12812;SDS011;6471;50.932;6.934;2023-04-24T17:24:24;3.23;;;1.93;;
12812;SDS011;6471;50.932;6.934;2023-04-24T17:26:50;2.23;;;2.00;;
12812;SDS011;6471;50.932;6.934;2023-04-24T17:29:16;5.00;;;2.03;;
12812;SDS011;6471;50.932;6.934;2023-04-24T17:31:43;2.67;;;2.17;;
12812;SDS011;6471;50.932;6.934;2023-04-24T17:34:09;3.63;;;2.20;;
12812;SDS011;6471;50.932;6.934;2023-04-24T17:36:35;2.93;;;1.90;;
12812;SDS011;6471;50.932;6.934;2023-04-24T17:39:02;3.30;;;1.90;;
12812;SDS011;6471;50.932;6.934;2023-04-24T17:41:28;2.90;;;2.00;;
12812;SDS011;6471;50.932;6.934;2023-04-24T17:43:54;2.57;;;1.97;;
12812;SDS011;6471;50.932;6.934;2023-04-24T17:46:20;2.83;;;1.87;;
12812;SDS011;6471;50.932;6.934;2023-04-24T17:48:46;2.50;;;1.77;;
12812;SDS011;6471;50.932;6.934;2023-04-24T17:51:12;3.23;;;1.80;;
12812;SDS011;6471;50.932;6.934;2023-04-24T17:53:38;4.10;;;1.80;;
12812;SDS011;6471;50.932;6.934;2023-04-24T17:56:05;2.83;;;2.07;;
12812;SDS011;6471;50.932;6.934;2023-04-24T17:58:32;2.93;;;1.80;;
12812;SDS011;6471;50.932;6.934;2023-04-24T18:00:59;4.30;;;1.80;;
12812;SDS011;6471;50.932;6.934;2023-04-24T18:03:25;2.90;;;2.00;;
12812;SDS011;6471;50.932;6.934;2023-04-24T18:05:51;2.93;;;2.10;;
12812;SDS011;6471;50.932;6.934;2023-04-24T18:08:20;2.73;;;2.10;;
12812;SDS011;6471;50.932;6.934;2023-04-24T18:10:46;2.30;;;1.83;;
12812;SDS011;6471;50.932;6.934;2023-04-24T18:13:12;2.77;;;1.87;;
12812;SDS011;6471;50.932;6.934;2023-04-24T18:15:38;3.77;;;1.93;;
12812;SDS011;6471;50.932;6.934;2023-04-24T18:18:07;3.20;;;2.10;;
12812;SDS011;6471;50.932;6.934;2023-04-24T18:20:35;3.47;;;1.80;;
12812;SDS011;6471;50.932;6.934;2023-04-24T18:23:01;2.00;;;1.60;;
12812;SDS011;6471;50.932;6.934;2023-04-24T18:25:27;4.30;;;1.87;;
12812;SDS011;6471;50.932;6.934;2023-04-24T18:27:53;2.90;;;1.80;;
12812;SDS011;6471;50.932;6.934;2023-04-24T18:30:20;2.00;;;1.70;;
12812;SDS011;6471;50.932;6.934;2023-04-24T18:32:52;2.53;;;1.70;;
12812;SDS011;6471;50.932;6.934;2023-04-24T18:44:42;3.53;;;1.80;;
12812;SDS011;6471;50.932;6.934;2023-04-24T18:47:15;3.57;;;1.77;;
12812;SDS011;6471;50.932;6.934;2023-04-24T19:08:58;3.30;;;1.70;;
12812;SDS011;6471;50.932;6.934;2023-04-24T19:11:53;6.37;;;2.00;;
12812;SDS011;6471;50.932;6.934;2023-04-24T19:20:10;2.60;;;1.90;;
12812;SDS011;6471;50.932;6.934;2023-04-24T19:26:24;4.30;;;2.10;;
12812;SDS011;6471;50.932;6.934;2023-04-24T19:32:14;2.20;;;1.80;;
12812;SDS011;6471;50.932;6.934;2023-04-24T19:40:23;3.63;;;1.80;;
12812;SDS011;6471;50.932;6.934;2023-04-24T19:46:37;3.37;;;1.80;;
12812;SDS011;6471;50.932;6.934;2023-04-24T21:08:30;3.87;;;2.10;;
12812;SDS011;6471;50.932;6.934;2023-04-24T21:10:56;3.47;;;2.10;;
12812;SDS011;6471;50.932;6.934;2023-04-24T21:13:22;4.30;;;2.53;;
12812;SDS011;6471;50.932;6.934;2023-04-24T21:15:48;3.80;;;2.10;;
12812;SDS011;6471;50.932;6.934;2023-04-24T21:18:15;3.77;;;2.27;;
12812;SDS011;6471;50.932;6.934;2023-04-24T22:18:47;4.80;;;2.57;;
12812;SDS011;6471;50.932;6.934;2023-04-24T22:21:13;4.80;;;2.50;;
12812;SDS011;6471;50.932;6.934;2023-04-24T22:23:39;3.50;;;2.40;;
12812;SDS011;6471;50.932;6.934;2023-04-24T22:26:05;6.57;;;2.97;;
12812;SDS011;6471;50.932;6.934;2023-04-24T22:28:32;3.97;;;2.60;;
12812;SDS011;6471;50.932;6.934;2023-04-24T22:30:58;4.43;;;2.90;;
12812;SDS011;6471;50.932;6.934;2023-04-24T22:33:25;6.17;;;3.20;;
12812;SDS011;6471;50.932;6.934;2023-04-24T22:35:51;4.20;;;3.00;;
12812;SDS011;6471;50.932;6.934;2023-04-24T22:38:17;5.63;;;2.90;;
12812;SDS011;6471;50.932;6.934;2023-04-24T22:40:43;4.27;;;2.70;;
12812;SDS011;6471;50.932;6.934;2023-04-24T22:43:09;4.47;;;2.50;;
12812;SDS011;6471;50.932;6.934;2023-04-24T22:45:36;4.20;;;2.17;;
12812;SDS011;6471;50.932;6.934;2023-04-24T22:48:03;4.40;;;2.33;;
12812;SDS011;6471;50.932;6.934;2023-04-24T22:50:29;7.03;;;2.80;;
12812;SDS011;6471;50.932;6.934;2023-04-24T22:52:56;4.30;;;2.57;;
12812;SDS011;6471;50.932;6.934;2023-04-24T22:55:22;3.97;;;2.50;;
12812;SDS011;6471;50.932;6.934;2023-04-24T22:57:48;4.33;;;2.73;;
12812;SDS011;6471;50.932;6.934;2023-04-24T23:00:14;5.93;;;3.00;;
12812;SDS011;6471;50.932;6.934;2023-04-24T23:02:41;6.60;;;3.17;;
12812;SDS011;6471;50.932;6.934;2023-04-24T23:05:09;3.90;;;2.60;;
12812;SDS011;6471;50.932;6.934;2023-04-24T23:22:44;3.27;;;2.40;;
